(°C)
12°
12°
13°
13°
13°
14°
14°
(°C)
11°
11°
11°
12°
12°
12°
12°
J
J
JJZ
JJZ
JJZ
JJZ
JJZ
(km/h)
7-20
8-20
9-22
11-23
11-24
12-25
13-25
(mm)
0
0
0
0
0.1
0.3
0.4
(%)
52
56
60
65
69
62
55

Sluneční výška

/ -3.7°
sun-icon
UV 1
07:30
16:23
Ubývající srpek (294°)
01:25
14:10

METAR pro Renton (KRNT)

Čas Podmínky Teplota/
Rosný bod
Vítr Viditelnost Počasí Oblaky Tlak Změna Nezpracované
MVFR 11.7°C / 10°C 150º 3kt >10km - Broken Clouds 1200ft
Broken Clouds 7000ft
1022 - KRNT 291453Z AUTO 15003KT 10SM BKN012 BKN070 12/10 A3019 RMK AO2 SLP228 T01170100 53005 $
MVFR 11.7°C / 10°C 150º 3kt >10km - Broken Clouds 1200ft
Broken Clouds 2400ft
Broken Clouds 7000ft
- KRNT 291438Z AUTO 15003KT 10SM BKN012 BKN024 BKN070 12/10 A3018 RMK AO2 T01170100 $
MVFR 12.2°C / 10°C 140º 3kt >10km - Overcast 1600ft 1022 - KRNT 291353Z AUTO 14003KT 10SM OVC016 12/10 A3017 RMK AO2 SLP222 T01220100 $
MVFR 12.2°C / 10°C 190º 3kt >10km - Broken Clouds 1600ft
Broken Clouds 2200ft
- KRNT 291311Z AUTO 19003KT 10SM BKN016 BKN022 12/10 A3018 RMK AO2 T01220100 $
MVFR 12.8°C / 10°C 160º 6kt >10km - Broken Clouds 1400ft 1022 - KRNT 291253Z AUTO 16006KT 10SM BKN014 13/10 A3017 RMK AO2 SLP222 T01280100 $
MVFR 12.2°C / 10°C variable 0kt >10km - Broken Clouds 1500ft
Overcast 7500ft
1022 - KRNT 291153Z AUTO 00000KT 10SM BKN015 OVC075 12/10 A3018 RMK AO2 SLP223 70002 T01220100 10133 20122 58000 $
MVFR 12.2°C / 10.6°C 180º 5kt >10km - Broken Clouds 1500ft
Overcast 7500ft
- KRNT 291127Z AUTO 18005KT 10SM BKN015 OVC075 12/11 A3018 RMK AO2 T01220106 $
VFR 12.2°C / 10.6°C 190º 6kt >10km - Scattered Clouds 1300ft
Overcast 7500ft
- KRNT 291115Z AUTO 19006KT 10SM SCT013 OVC075 12/11 A3018 RMK AO2 T01220106 $
MVFR 12.2°C / 10.6°C 190º 5kt >10km - Broken Clouds 1300ft
Overcast 8000ft
1022 - KRNT 291053Z AUTO 19005KT 10SM BKN013 OVC080 12/11 A3019 RMK AO2 SLP227 T01220106 $
MVFR 12°C / 11°C 200º 5kt >10km - Broken Clouds 1300ft
Overcast 8000ft
- KRNT 291050Z AUTO 20005KT 10SM BKN013 OVC080 12/11 A3019 RMK AO2 $
VFR 12.2°C / 10°C 200º 6kt >10km - Clear 1022 - KRNT 290953Z AUTO 20006KT 10SM CLR 12/10 A3018 RMK AO2 SLP224 T01220100 $
12.8°C / 10.6°C 190º 8kt >10km - 1022 - KRNT 290853Z AUTO 19008KT 10SM 13/11 A3018 RMK AO2 SLP223 T01280106 53001 $
12.8°C / 10.6°C - - KRNT 290833Z AUTO 13/11 A3018 RMK AO2 T01280106 PWINO $
MVFR 12.8°C / 10.6°C 170º 4kt >10km - Few Clouds 1500ft
Broken Clouds 2100ft
1022 - KRNT 290753Z AUTO 17004KT 10SM FEW015 BKN021 13/11 A3017 RMK AO2 SLP222 T01280106 401670122 $
MVFR 13°C / 11°C 180º 4kt >10km - Broken Clouds 2100ft - KRNT 290748Z AUTO 18004KT 10SM BKN021 13/11 A3018 RMK AO2 $
VFR 12.8°C / 10.6°C 190º 8kt >10km - Clear 1022 - KRNT 290653Z AUTO 19008KT 10SM CLR 13/11 A3017 RMK AO2 SLP223 T01280106 $
VFR 12.8°C / 10.6°C 190º 7kt >10km - Scattered Clouds 1900ft - KRNT 290642Z AUTO 19007KT 10SM SCT019 13/11 A3017 RMK AO2 T01280106 $
MVFR 12.8°C / 11.1°C 190º 8kt >10km - Broken Clouds 1800ft
Broken Clouds 7000ft
1022 - KRNT 290553Z AUTO 19008KT 10SM BKN018 BKN070 13/11 A3017 RMK AO2 SLP222 T01280111 10133 20128 51008 $
VFR 12.8°C / 10.6°C 190º 7kt >10km - Scattered Clouds 1800ft
Broken Clouds 7000ft
- KRNT 290536Z AUTO 19007KT 10SM SCT018 BKN070 13/11 A3017 RMK AO2 T01280106 $
MVFR 13.3°C / 11.1°C 190º 6kt >10km - Few Clouds 1700ft
Overcast 2200ft
1022 - KRNT 290453Z AUTO 19006KT 10SM FEW017 OVC022 13/11 A3017 RMK AO2 SLP221 T01330111 $
MVFR 13.3°C / 11.1°C 180º 6kt >10km - Broken Clouds 1500ft
Overcast 2200ft
1021 - KRNT 290353Z AUTO 18006KT 10SM BKN015 OVC022 13/11 A3016 RMK AO2 SLP216 T01330111 $
MVFR 13.3°C / 11.1°C 180º 7kt >10km - Overcast 1100ft - KRNT 290329Z 18007KT 10SM OVC011 13/11 A3015 RMK AO2 T01330111 $
IFR 13.3°C / 11.1°C 160º 6kt >10km - Overcast 800ft - KRNT 290302Z 16006KT 10SM OVC008 13/11 A3015 RMK AO2 T01330111 $
IFR 12.8°C / 11.7°C variable 4kt 6400m Mist Vertical Visibility of 0ft. 1021 - KRNT 290153Z VRB04KT 4SM BR OVC006 13/12 A3014 RMK AO2 SLP212 T01280117 $

MVFR

11.7°C / 10°C

[Víc]
Vítr 150º 3kt
Viditelnost >10km
Počasí -
Oblaky Broken Clouds 1200ft
Broken Clouds 7000ft
Tlak 1022
Změna -
Nezpracované KRNT 291453Z AUTO 15003KT 10SM BKN012 BKN070 12/10 A3019 RMK AO2 SLP228 T01170100 53005 $

MVFR

11.7°C / 10°C

[Víc]
Vítr 150º 3kt
Viditelnost >10km
Počasí -
Oblaky Broken Clouds 1200ft
Broken Clouds 2400ft
Broken Clouds 7000ft
Tlak
Změna -
Nezpracované KRNT 291438Z AUTO 15003KT 10SM BKN012 BKN024 BKN070 12/10 A3018 RMK AO2 T01170100 $

MVFR

12.2°C / 10°C

[Víc]
Vítr 140º 3kt
Viditelnost >10km
Počasí -
Oblaky Overcast 1600ft
Tlak 1022
Změna -
Nezpracované KRNT 291353Z AUTO 14003KT 10SM OVC016 12/10 A3017 RMK AO2 SLP222 T01220100 $

MVFR

12.2°C / 10°C

[Víc]
Vítr 190º 3kt
Viditelnost >10km
Počasí -
Oblaky Broken Clouds 1600ft
Broken Clouds 2200ft
Tlak
Změna -
Nezpracované KRNT 291311Z AUTO 19003KT 10SM BKN016 BKN022 12/10 A3018 RMK AO2 T01220100 $

MVFR

12.8°C / 10°C

[Víc]
Vítr 160º 6kt
Viditelnost >10km
Počasí -
Oblaky Broken Clouds 1400ft
Tlak 1022
Změna -
Nezpracované KRNT 291253Z AUTO 16006KT 10SM BKN014 13/10 A3017 RMK AO2 SLP222 T01280100 $

MVFR

12.2°C / 10°C

[Víc]
Vítr variable 0kt
Viditelnost >10km
Počasí -
Oblaky Broken Clouds 1500ft
Overcast 7500ft
Tlak 1022
Změna -
Nezpracované KRNT 291153Z AUTO 00000KT 10SM BKN015 OVC075 12/10 A3018 RMK AO2 SLP223 70002 T01220100 10133 20122 58000 $

MVFR

12.2°C / 10.6°C

[Víc]
Vítr 180º 5kt
Viditelnost >10km
Počasí -
Oblaky Broken Clouds 1500ft
Overcast 7500ft
Tlak
Změna -
Nezpracované KRNT 291127Z AUTO 18005KT 10SM BKN015 OVC075 12/11 A3018 RMK AO2 T01220106 $

VFR

12.2°C / 10.6°C

[Víc]
Vítr 190º 6kt
Viditelnost >10km
Počasí -
Oblaky Scattered Clouds 1300ft
Overcast 7500ft
Tlak
Změna -
Nezpracované KRNT 291115Z AUTO 19006KT 10SM SCT013 OVC075 12/11 A3018 RMK AO2 T01220106 $

MVFR

12.2°C / 10.6°C

[Víc]
Vítr 190º 5kt
Viditelnost >10km
Počasí -
Oblaky Broken Clouds 1300ft
Overcast 8000ft
Tlak 1022
Změna -
Nezpracované KRNT 291053Z AUTO 19005KT 10SM BKN013 OVC080 12/11 A3019 RMK AO2 SLP227 T01220106 $

MVFR

12°C / 11°C

[Víc]
Vítr 200º 5kt
Viditelnost >10km
Počasí -
Oblaky Broken Clouds 1300ft
Overcast 8000ft
Tlak
Změna -
Nezpracované KRNT 291050Z AUTO 20005KT 10SM BKN013 OVC080 12/11 A3019 RMK AO2 $

VFR

12.2°C / 10°C

[Víc]
Vítr 200º 6kt
Viditelnost >10km
Počasí -
Oblaky Clear
Tlak 1022
Změna -
Nezpracované KRNT 290953Z AUTO 20006KT 10SM CLR 12/10 A3018 RMK AO2 SLP224 T01220100 $

12.8°C / 10.6°C

[Víc]
Vítr 190º 8kt
Viditelnost >10km
Počasí -
Oblaky
Tlak 1022
Změna -
Nezpracované KRNT 290853Z AUTO 19008KT 10SM 13/11 A3018 RMK AO2 SLP223 T01280106 53001 $

12.8°C / 10.6°C

[Víc]
Vítr
Viditelnost
Počasí -
Oblaky
Tlak
Změna -
Nezpracované KRNT 290833Z AUTO 13/11 A3018 RMK AO2 T01280106 PWINO $

MVFR

12.8°C / 10.6°C

[Víc]
Vítr 170º 4kt
Viditelnost >10km
Počasí -
Oblaky Few Clouds 1500ft
Broken Clouds 2100ft
Tlak 1022
Změna -
Nezpracované KRNT 290753Z AUTO 17004KT 10SM FEW015 BKN021 13/11 A3017 RMK AO2 SLP222 T01280106 401670122 $

MVFR

13°C / 11°C

[Víc]
Vítr 180º 4kt
Viditelnost >10km
Počasí -
Oblaky Broken Clouds 2100ft
Tlak
Změna -
Nezpracované KRNT 290748Z AUTO 18004KT 10SM BKN021 13/11 A3018 RMK AO2 $

VFR

12.8°C / 10.6°C

[Víc]
Vítr 190º 8kt
Viditelnost >10km
Počasí -
Oblaky Clear
Tlak 1022
Změna -
Nezpracované KRNT 290653Z AUTO 19008KT 10SM CLR 13/11 A3017 RMK AO2 SLP223 T01280106 $

VFR

12.8°C / 10.6°C

[Víc]
Vítr 190º 7kt
Viditelnost >10km
Počasí -
Oblaky Scattered Clouds 1900ft
Tlak
Změna -
Nezpracované KRNT 290642Z AUTO 19007KT 10SM SCT019 13/11 A3017 RMK AO2 T01280106 $

MVFR

12.8°C / 11.1°C

[Víc]
Vítr 190º 8kt
Viditelnost >10km
Počasí -
Oblaky Broken Clouds 1800ft
Broken Clouds 7000ft
Tlak 1022
Změna -
Nezpracované KRNT 290553Z AUTO 19008KT 10SM BKN018 BKN070 13/11 A3017 RMK AO2 SLP222 T01280111 10133 20128 51008 $

VFR

12.8°C / 10.6°C

[Víc]
Vítr 190º 7kt
Viditelnost >10km
Počasí -
Oblaky Scattered Clouds 1800ft
Broken Clouds 7000ft
Tlak
Změna -
Nezpracované KRNT 290536Z AUTO 19007KT 10SM SCT018 BKN070 13/11 A3017 RMK AO2 T01280106 $

MVFR

13.3°C / 11.1°C

[Víc]
Vítr 190º 6kt
Viditelnost >10km
Počasí -
Oblaky Few Clouds 1700ft
Overcast 2200ft
Tlak 1022
Změna -
Nezpracované KRNT 290453Z AUTO 19006KT 10SM FEW017 OVC022 13/11 A3017 RMK AO2 SLP221 T01330111 $

MVFR

13.3°C / 11.1°C

[Víc]
Vítr 180º 6kt
Viditelnost >10km
Počasí -
Oblaky Broken Clouds 1500ft
Overcast 2200ft
Tlak 1021
Změna -
Nezpracované KRNT 290353Z AUTO 18006KT 10SM BKN015 OVC022 13/11 A3016 RMK AO2 SLP216 T01330111 $

MVFR

13.3°C / 11.1°C

[Víc]
Vítr 180º 7kt
Viditelnost >10km
Počasí -
Oblaky Overcast 1100ft
Tlak
Změna -
Nezpracované KRNT 290329Z 18007KT 10SM OVC011 13/11 A3015 RMK AO2 T01330111 $

IFR

13.3°C / 11.1°C

[Víc]
Vítr 160º 6kt
Viditelnost >10km
Počasí -
Oblaky Overcast 800ft
Tlak
Změna -
Nezpracované KRNT 290302Z 16006KT 10SM OVC008 13/11 A3015 RMK AO2 T01330111 $

IFR

12.8°C / 11.7°C

[Víc]
Vítr variable 4kt
Viditelnost 6400m
Počasí Mist
Oblaky Vertical Visibility of 0ft.
Tlak 1021
Změna -
Nezpracované KRNT 290153Z VRB04KT 4SM BR OVC006 13/12 A3014 RMK AO2 SLP212 T01280117 $

Aktuální snímky ze satelitu pro Renton, Spojené státy americké

Značka polohy je umístěna na Renton. [Víc]

Satelitní snímek v reálném čase kombinuje viditelné světlo během dne s infračerveným zářením během noci. V noci není obraz tmavý, protože infračervené záření dokáže detekovat teplotní rozdíly. Nízká oblačnost a mlha se bohužel těžko odlišují od pozemních teplot, a proto mohou být během noci téměř neviditelné. Satelitní snímky z Meteosatu pro Evropu jsou aktualizovány v reálném čase každých 5 minut. Snímky z GOES-16/GOES-17 (Severní a Jižní Amerika) a Himawari (Asie) jsou aktualizovány) každých 10 minut.

Radar a krátkodobá předpověď srážek pro Renton

Mrholení
Slabé
Střední
Silné
Velmi silné
Kroupy

Značka lokality je umístněna na Renton. Tato animace ukazuje srážky zaznamenané radarem za poslední hodinu a také 1h předpověď. Mrholení nebo slabé sněžení může být pro radar neviditelné. Intenzita srážek je barevně označena od světle modré po oranžovou.